AirNav   Bose Proflight Series 2 Wireless viation Headset
 
 1468 users online  

84WA D and B Airpark
Elma, Washington, USA

GOING TO ELMA?


FAA INFORMATION EFFECTIVE 10 OCTOBER 2019

Location

FAA Identifier: 84WA
Lat/Long: 46-58-22.3470N 123-23-03.5640W
46-58.372450N 123-23.059400W
46.9728742,-123.3843233
(estimated)
Elevation: 55 ft. / 17 m (estimated)
Variation: 20E (1985)
From city: 3 miles SE of ELMA, WA
Time zone: UTC -7 (UTC -8 during Standard Time)
Zip code: 98541

Airport Operations

Airport use: Private use. Permission required prior to landing
Activation date: 06/1979
Control tower: no
ARTCC: SEATTLE CENTER
FSS: SEATTLE FLIGHT SERVICE STATION
Attendance: UNATNDD
Wind indicator: yes
Segmented circle: no

Airport Communications

WX ASOS at SHN (18 nm NE): 119.275 (360-427-3835)
WX ASOS at OLM (20 nm E): 135.725 (360-754-0781)

Nearby radio navigation aids

VOR radial/distance  VOR name  Freq  Var
OLMr251/19.8OLYMPIA VORTAC113.4019E
HQMr068/31.4HOQUIAM VORTAC117.7019E
TCMr239/38.6MCCHORD VORTAC109.6015E

 
NDB name  Hdg/Dist  Freq  Var  ID
LACOMAS250/33.932816ELAC .-.. .- -.-.

Airport Services

Airframe service: MINOR
Powerplant service: MINOR

Runway Information

Runway 11/29

Dimensions: 1800 x 50 ft. / 549 x 15 m
Surface: turf
RUNWAY 11  RUNWAY 29
Traffic pattern: leftleft
Obstructions: plinesnone

Airport Ownership and Management from official FAA records

Ownership: Privately-owned
Owner: RICHARD G CABE
289 SOUTH BANK ROAD
ELMA, WA 98541
Phone 206-482-3494
Manager: RICHARD G CABE
289 SOUTH BANK ROAD
ELMA, WA 98541
Phone 206-482-3494

Airport Operational Statistics

Aircraft based on the field: 5
Single engine airplanes: 5
    

Additional Remarks

FOR CD CTC SEATTLE ARTCC AT 253-351-3694.

Instrument Procedures

There are no published instrument procedures at 84WA.

Some nearby airports with instrument procedures:

KSHN - Sanderson Field Airport (18 nm NE)
KOLM - Olympia Regional Airport (20 nm E)
KHQM - Bowerman Airport (23 nm W)
KCLS - Chehalis-Centralia Airport (24 nm SE)
KGRF - Gray Army Airfield (Joint Base Lewis-McChord) (33 nm E)
 
Loc | Ops | Rwys | IFR | FBO | Links
Com | Nav | Svcs | Stats | Notes
Area around 84WA (D and B Airpark)
 
Road maps at: MapQuest Bing Google
 
Aerial photo
No photo
 
Sectional chart

 
Airport distance calculator
Flying to D and B Airpark? Find the distance to fly.

From to 84WA

Sunrise and sunset
Times for 17-Oct-2019
 Local
(UTC-7)
 Zulu
(UTC)
Morning civil twilight07:0514:05
Sunrise07:3614:36
Sunset18:2201:22
Evening civil twilight18:5301:53

Current date and time
Zulu (UTC)  17-Oct-2019 19:15:13
Local (UTC-7)  17-Oct-2019 12:15:13
 
METAR
KSHN 
19nm NE 
171853Z AUTO 21010KT 10SM BKN016 BKN031 OVC055 13/11 A2967 RMK AO2 RAB24E33 SLP049 P0000 T01280106
KOLM 
20nm E 
171854Z 20014G21KT 10SM FEW013 SCT028 OVC039 13/11 A2971 RMK AO2 RAE53 SLP061 P0006 T01280106
KHQM 
22nm W 
171853Z AUTO 21010KT 10SM BKN050 OVC065 13/11 A2970 RMK AO2 SLP061 T01280111
KCLS 
24nm SE 
171855Z AUTO 18009KT 2 1/2SM BR FEW036 SCT045 12/11 A2974 RMK AO2
KGRF 
34nm E 
171858Z 17015G21KT 10SM -RA SCT024 BKN040 13/13 A2971 RMK AO2A SLP065 P0000 T01290127 $
KTIW 
37nm NE 
171853Z 20017G26KT 10SM SCT025 BKN042 OVC050 12/09 A2970 RMK AO2 PK WND 21026/1845 RAE29 SLP059 P0001 T01170094
TAF
KOLM 
20nm E 
171732Z 1718/1818 21012KT P6SM -RA SCT010 BKN035 OVC060 FM172100 21012G21KT P6SM -RA SCT015 OVC030 TEMPO 1722/1802 3SM RA OVC015 FM180700 22008KT P6SM VCSH SCT010 OVC020 TEMPO 1812/1816 1/2SM FG OVC010
KHQM 
22nm W 
171732Z 1718/1818 19010KT 4SM -RA BR SCT035 OVC050 FM172000 20014G25KT P6SM -RA OVC025 FM180200 22010KT P6SM -RA OVC025 FM180400 23010KT P6SM VCSH SCT025 OVC050 FM181400 18008KT P6SM OVC050
NOTAMs
Click for the latest NOTAMs
NOTAMs are issued by the DoD/FAA and will open in a separate window not controlled by AirNav.

 

 
 

Would you like to see your business listed on this page?

 If your business provides an interesting product or service to pilots, flight crews, aircraft, or users of the D and B Airpark, you should consider listing it here.  To start the listing process, click on the button below
 
Add a business
 

Other Pages about D and B Airpark

Update a link
 
Copyright © AirNav, LLC. All rights reserved. Privacy Policy  Contact